Weather History for KGHW - March, 2013

Change the Weather History Date:

Friday, March 29, 2013

  Actual Average Record
Temperature  
Mean Temperature 35 °F -  
Max Temperature 42 °F 45 °F 78 °F (1986)
Min Temperature 28 °F 23 °F -56 °F (1998)
Degree Days  
Heating Degree Days 30    
Moisture  
Dew Point 32 °F    
Average Humidity 87    
Maximum Humidity 100    
Minimum Humidity 70    
Precipitation  
Precipitation 0.00 in - - ()
Sea Level Pressure  
Sea Level Pressure 30.14 in    
Wind  
Wind Speed 7 mph (ESE)    
Max Wind Speed 13 mph    
Max Gust Speed -    
Visibility 7 miles    
Events Rain    
Averages and records for this station are not official NWS values.
T = Trace of Precipitation, MM = Missing Value Source: NWS Daily Summary

Daily Weather History Graph

Daily Weather History Graph

Search for Another Location

Airport or City:

Trip Planner

Search our weather history database for the weather conditions in past years. The results will help you decide how hot, cold, wet, or windy it might be!

Date:

Astronomy

Mar. 29, 2013 Rise Set
Actual Time 7:06 AM CDT 7:46 PM CDT
Civil Twilight 6:36 AM CDT 8:15 PM CDT
Nautical Twilight 6:01 AM CDT 8:51 PM CDT
Astronomical Twilight 5:24 AM CDT 9:28 PM CDT
Moon 10:57 PM CDT (3/29) 8:07 AM CDT (3/29)
Length of Visible Light 13h 39m
Length of Day
12h 39m
Waning Gibbous, 93% of the Moon is Illuminated
Mar 29
Waning Gibbous
Apr 2
Last Quarter
Apr 10
New
Apr 18
First Quarter
Apr 25
Full

Hourly Weather History & Observations

Time (CDT) Temp. Windchill Dew Point Humidity Pressure Visibility Wind Dir Wind Speed Gust Speed Precip Events Conditions
12:14 AM 30.2 °F 22.6 °F 26.6 °F 86% 30.22 in 10.0 mi ESE 8.1 mph - N/A   Clear
12:33 AM 30.2 °F 22.6 °F 26.6 °F 86% 30.23 in 10.0 mi ESE 8.1 mph - N/A   Scattered Clouds
12:53 AM 28.4 °F 20.4 °F 26.6 °F 93% 30.22 in 10.0 mi ESE 8.1 mph - N/A   Mostly Cloudy
1:14 AM 28.4 °F 20.4 °F 26.6 °F 93% 30.22 in 10.0 mi ESE 8.1 mph - N/A   Overcast
1:33 AM 30.2 °F 22.6 °F 26.6 °F 86% 30.22 in 10.0 mi ESE 8.1 mph - N/A   Overcast
1:53 AM 30.2 °F 22.6 °F 26.6 °F 86% 30.23 in 10.0 mi SE 8.1 mph - N/A   Overcast
2:14 AM 30.2 °F 23.4 °F 26.6 °F 86% 30.22 in 10.0 mi ESE 6.9 mph - N/A   Overcast
2:33 AM 30.2 °F 23.4 °F 28.4 °F 93% 30.22 in 10.0 mi SE 6.9 mph - N/A   Overcast
2:53 AM 30.2 °F 24.3 °F 26.6 °F 86% 30.22 in 7.0 mi ESE 5.8 mph - N/A   Overcast
3:13 AM 30.2 °F 24.3 °F 28.4 °F 93% 30.22 in 7.0 mi ESE 5.8 mph - N/A   Overcast
3:33 AM 30.2 °F 25.4 °F 28.4 °F 93% 30.22 in 7.0 mi ESE 4.6 mph - N/A   Overcast
3:53 AM 30.2 °F 25.4 °F 28.4 °F 93% 30.21 in 7.0 mi ESE 4.6 mph - N/A   Overcast
4:13 AM 30.2 °F 25.4 °F 28.4 °F 93% 30.20 in 5.0 mi ESE 4.6 mph - N/A   Overcast
4:34 AM 30.2 °F 24.3 °F 28.4 °F 93% 30.20 in 5.0 mi ESE 5.8 mph - N/A   Overcast
4:53 AM 30.2 °F 24.3 °F 28.4 °F 93% 30.20 in 5.0 mi ESE 5.8 mph - N/A   Overcast
5:13 AM 28.4 °F 22.2 °F 28.4 °F 100% 30.19 in 5.0 mi ESE 5.8 mph - N/A   Scattered Clouds
5:34 AM 28.4 °F 23.3 °F 26.6 °F 93% 30.20 in 4.0 mi SE 4.6 mph - N/A   Scattered Clouds
5:53 AM 28.4 °F 23.3 °F 26.6 °F 93% 30.19 in 4.0 mi ESE 4.6 mph - N/A   Mostly Cloudy
6:13 AM 28.4 °F 22.2 °F 28.4 °F 100% 30.19 in 4.0 mi ESE 5.8 mph - N/A   Mostly Cloudy
6:34 AM 30.2 °F 23.4 °F 28.4 °F 93% 30.19 in 5.0 mi SE 6.9 mph - N/A   Overcast
6:53 AM 28.4 °F 23.3 °F 28.4 °F 100% 30.19 in 5.0 mi SE 4.6 mph - N/A   Overcast
7:13 AM 28.4 °F 24.6 °F 28.4 °F 100% 30.19 in 4.0 mi SE 3.5 mph - N/A   Mostly Cloudy
7:34 AM 28.4 °F 23.3 °F 26.6 °F 93% 30.20 in 2.5 mi ESE 4.6 mph - N/A   Mostly Cloudy
7:53 AM 28.4 °F 24.6 °F 28.4 °F 100% 30.20 in 2.5 mi SE 3.5 mph - N/A   Mostly Cloudy
8:13 AM 28.4 °F 24.6 °F 28.4 °F 100% 30.20 in 2.5 mi SE 3.5 mph - N/A   Scattered Clouds
8:34 AM 30.2 °F 25.4 °F 28.4 °F 93% 30.20 in 3.0 mi SE 4.6 mph - N/A   Scattered Clouds
8:53 AM 30.2 °F 26.7 °F 28.4 °F 93% 30.20 in 3.0 mi SE 3.5 mph - N/A   Scattered Clouds
9:13 AM 32.0 °F - 30.2 °F 93% 30.20 in 4.0 mi Calm Calm - N/A   Scattered Clouds
9:34 AM 33.8 °F - 30.2 °F 87% 30.20 in 5.0 mi Calm Calm - N/A   Scattered Clouds
9:53 AM 35.6 °F 32.8 °F 30.2 °F 81% 30.19 in 5.0 mi SE 3.5 mph - N/A   Scattered Clouds
10:13 AM 35.6 °F 31.7 °F 32.0 °F 87% 30.19 in 5.0 mi SSE 4.6 mph - N/A   Scattered Clouds
10:34 AM 35.6 °F 32.8 °F 32.0 °F 87% 30.19 in 5.0 mi SSE 3.5 mph - N/A   Scattered Clouds
10:53 AM 37.4 °F 34.9 °F 33.8 °F 87% 30.19 in 7.0 mi SSE 3.5 mph - N/A   Scattered Clouds
11:13 AM 37.4 °F 32.8 °F 33.8 °F 87% 30.19 in 7.0 mi SSE 5.8 mph - N/A   Mostly Cloudy
11:33 AM 37.4 °F 33.8 °F 33.8 °F 87% 30.18 in 7.0 mi SSE 4.6 mph - N/A   Mostly Cloudy
11:53 AM 39.2 °F 35.9 °F 33.8 °F 81% 30.18 in 7.0 mi SE 4.6 mph - N/A   Scattered Clouds
12:13 PM 39.2 °F 35.0 °F 33.8 °F 81% 30.17 in 7.0 mi ESE 5.8 mph - N/A   Mostly Cloudy
12:33 PM 39.2 °F 34.2 °F 33.8 °F 81% 30.17 in 7.0 mi ESE 6.9 mph - N/A   Scattered Clouds
12:53 PM 39.2 °F 34.2 °F 33.8 °F 81% 30.17 in 10.0 mi ESE 6.9 mph - N/A   Scattered Clouds
1:13 PM 41.0 °F 36.4 °F 33.8 °F 76% 30.16 in 10.0 mi ESE 6.9 mph - N/A   Scattered Clouds
1:33 PM 42.8 °F 38.0 °F 33.8 °F 70% 30.15 in 10.0 mi ESE 8.1 mph - N/A   Clear
1:53 PM 42.8 °F 38.0 °F 33.8 °F 70% 30.14 in 10.0 mi ESE 8.1 mph - N/A   Clear
2:14 PM 42.8 °F 38.6 °F 33.8 °F 70% 30.14 in 10.0 mi ESE 6.9 mph - N/A   Clear
2:33 PM 42.8 °F 38.0 °F 33.8 °F 70% 30.13 in 10.0 mi ESE 8.1 mph - N/A   Clear
2:53 PM 42.8 °F 37.5 °F 33.8 °F 70% 30.12 in 10.0 mi ESE 9.2 mph - N/A   Clear
3:14 PM 41.0 °F 35.8 °F 33.8 °F 76% 30.11 in 10.0 mi ESE 8.1 mph - N/A   Clear
3:33 PM 39.2 °F 33.6 °F 33.8 °F 81% 30.10 in 7.0 mi ESE 8.1 mph - N/A   Clear
3:53 PM 42.8 °F 37.5 °F 33.8 °F 70% 30.10 in 10.0 mi ESE 9.2 mph - N/A   Clear
4:14 PM 42.8 °F 36.6 °F 33.8 °F 70% 30.08 in 7.0 mi ESE 11.5 mph - N/A   Clear
4:33 PM 41.0 °F 34.3 °F 33.8 °F 76% 30.09 in 10.0 mi SE 11.5 mph - N/A   Clear
4:53 PM 41.0 °F 34.7 °F 33.8 °F 76% 30.08 in 10.0 mi ESE 10.4 mph - N/A   Clear
5:14 PM 39.2 °F 33.0 °F 33.8 °F 81% 30.07 in 10.0 mi ESE 9.2 mph - N/A   Clear
5:33 PM 37.4 °F 30.3 °F 33.8 °F 87% 30.07 in 10.0 mi ESE 10.4 mph - N/A   Clear
5:53 PM 39.2 °F 32.0 °F 33.8 °F 81% 30.06 in 7.0 mi ESE 11.5 mph - N/A   Scattered Clouds
6:14 PM 39.2 °F 32.5 °F 33.8 °F 81% 30.06 in 7.0 mi ESE 10.4 mph - N/A   Scattered Clouds
6:33 PM 37.4 °F 33.8 °F 33.8 °F 87% 30.07 in 7.0 mi East 4.6 mph - N/A   Scattered Clouds
6:53 PM 37.4 °F 31.4 °F 33.8 °F 87% 30.07 in 7.0 mi ENE 8.1 mph - N/A   Mostly Cloudy
7:14 PM 37.4 °F 30.8 °F 33.8 °F 87% 30.07 in 7.0 mi ENE 9.2 mph - N/A   Light Drizzle
7:33 PM 37.4 °F 31.4 °F 35.6 °F 93% 30.06 in 4.0 mi ENE 8.1 mph - N/A Rain Light Rain
7:53 PM 35.6 °F 28.6 °F 33.8 °F 93% 30.05 in 7.0 mi ENE 9.2 mph - N/A   Mostly Cloudy
8:13 PM 35.6 °F 28.6 °F 33.8 °F 93% 30.04 in 7.0 mi East 9.2 mph - N/A   Mostly Cloudy
8:33 PM 35.6 °F 28.6 °F 33.8 °F 93% 30.04 in 7.0 mi East 9.2 mph - N/A   Scattered Clouds
8:53 PM 37.4 °F 30.8 °F 35.6 °F 93% 30.04 in 7.0 mi East 9.2 mph - N/A   Clear
9:13 PM 37.4 °F 30.8 °F 35.6 °F 93% 30.03 in 7.0 mi East 9.2 mph - N/A   Scattered Clouds
9:33 PM 37.4 °F 30.3 °F 35.6 °F 93% 30.03 in 7.0 mi East 10.4 mph - N/A   Mostly Cloudy
9:53 PM 37.4 °F 30.3 °F 35.6 °F 93% 30.02 in 7.0 mi ESE 10.4 mph - N/A   Scattered Clouds
10:13 PM 37.4 °F 30.3 °F 35.6 °F 93% 30.02 in 7.0 mi ESE 10.4 mph - N/A   Scattered Clouds
10:33 PM 37.4 °F 30.8 °F 33.8 °F 87% 30.01 in 7.0 mi ESE 9.2 mph - N/A   Mostly Cloudy
10:54 PM 37.4 °F 29.3 °F 35.6 °F 93% 29.99 in 7.0 mi ESE 12.7 mph - N/A   Scattered Clouds
11:13 PM 37.4 °F 29.8 °F 35.6 °F 93% 29.99 in 7.0 mi ESE 11.5 mph - N/A   Scattered Clouds
11:33 PM 37.4 °F 30.3 °F 35.6 °F 93% 29.98 in 7.0 mi ESE 10.4 mph - N/A   Scattered Clouds
11:54 PM 37.4 °F 30.3 °F 35.6 °F 93% 29.96 in 7.0 mi ESE 10.4 mph - N/A   Scattered Clouds